sensor_id;sensor_type;location;lat;lon;timestamp;pressure;altitude;pressure_sealevel;temperature;humidity
74627;BME280;63132;52.268;5.192;2023-02-01T00:02:02;101788.34;;;5.35;81.31
74627;BME280;63132;52.268;5.192;2023-02-01T00:04:28;101782.97;;;5.14;82.32
74627;BME280;63132;52.268;5.192;2023-02-01T00:06:53;101780.00;;;5.31;81.83
74627;BME280;63132;52.268;5.192;2023-02-01T00:09:19;101788.91;;;5.28;81.36
74627;BME280;63132;52.268;5.192;2023-02-01T00:11:44;101781.81;;;5.39;80.87
74627;BME280;63132;52.268;5.192;2023-02-01T00:14:10;101782.50;;;5.36;81.30
74627;BME280;63132;52.268;5.192;2023-02-01T00:16:35;101788.47;;;5.38;80.94
74627;BME280;63132;52.268;5.192;2023-02-01T00:19:03;101786.63;;;5.42;80.87
74627;BME280;63132;52.268;5.192;2023-02-01T00:21:30;101782.63;;;5.40;81.17
74627;BME280;63132;52.268;5.192;2023-02-01T00:23:56;101784.09;;;5.49;80.70
74627;BME280;63132;52.268;5.192;2023-02-01T00:26:32;101783.41;;;5.40;81.23
74627;BME280;63132;52.268;5.192;2023-02-01T00:28:58;101787.31;;;5.51;80.70
74627;BME280;63132;52.268;5.192;2023-02-01T00:31:23;101785.38;;;5.52;80.71
74627;BME280;63132;52.268;5.192;2023-02-01T00:33:49;101790.38;;;5.50;80.65
74627;BME280;63132;52.268;5.192;2023-02-01T00:36:14;101784.88;;;5.50;80.85
74627;BME280;63132;52.268;5.192;2023-02-01T00:38:40;101775.88;;;5.37;80.92
74627;BME280;63132;52.268;5.192;2023-02-01T00:41:14;101783.78;;;5.39;80.68
74627;BME280;63132;52.268;5.192;2023-02-01T00:43:41;101781.22;;;5.58;80.09
74627;BME280;63132;52.268;5.192;2023-02-01T00:46:06;101784.09;;;5.49;80.11
74627;BME280;63132;52.268;5.192;2023-02-01T00:48:31;101782.13;;;5.62;79.95
74627;BME280;63132;52.268;5.192;2023-02-01T00:51:01;101787.06;;;5.56;79.74
74627;BME280;63132;52.268;5.192;2023-02-01T00:53:27;101784.88;;;5.62;79.63
74627;BME280;63132;52.268;5.192;2023-02-01T00:55:53;101789.13;;;5.60;79.22
74627;BME280;63132;52.268;5.192;2023-02-01T00:58:18;101786.59;;;5.54;79.34
74627;BME280;63132;52.268;5.192;2023-02-01T01:00:44;101784.88;;;5.62;79.16
74627;BME280;63132;52.268;5.192;2023-02-01T01:03:09;101763.13;;;5.57;79.53
74627;BME280;63132;52.268;5.192;2023-02-01T01:05:45;101766.66;;;5.70;78.95
74627;BME280;63132;52.268;5.192;2023-02-01T01:08:11;101761.97;;;5.70;79.11
74627;BME280;63132;52.268;5.192;2023-02-01T01:10:36;101762.19;;;5.65;79.22
74627;BME280;63132;52.268;5.192;2023-02-01T01:13:02;101762.81;;;5.46;79.66
74627;BME280;63132;52.268;5.192;2023-02-01T01:15:27;101766.00;;;5.36;80.53
74627;BME280;63132;52.268;5.192;2023-02-01T01:17:52;101761.00;;;5.38;80.25
74627;BME280;63132;52.268;5.192;2023-02-01T01:20:18;101763.50;;;5.43;80.16
74627;BME280;63132;52.268;5.192;2023-02-01T01:22:46;101766.72;;;5.45;80.74
74627;BME280;63132;52.268;5.192;2023-02-01T01:25:12;101774.25;;;5.61;79.21
74627;BME280;63132;52.268;5.192;2023-02-01T01:27:37;101765.88;;;5.57;79.58
74627;BME280;63132;52.268;5.192;2023-02-01T01:30:04;101750.66;;;5.60;79.20
74627;BME280;63132;52.268;5.192;2023-02-01T01:32:29;101755.69;;;5.57;79.75
74627;BME280;63132;52.268;5.192;2023-02-01T01:34:55;101766.56;;;5.66;79.09
74627;BME280;63132;52.268;5.192;2023-02-01T01:37:20;101754.38;;;5.79;78.48
74627;BME280;63132;52.268;5.192;2023-02-01T01:39:46;101762.53;;;5.76;78.11
74627;BME280;63132;52.268;5.192;2023-02-01T01:42:11;101766.66;;;5.70;79.00
74627;BME280;63132;52.268;5.192;2023-02-01T01:47:25;101753.41;;;5.88;78.44
74627;BME280;63132;52.268;5.192;2023-02-01T01:49:51;101752.41;;;5.92;78.32
74627;BME280;63132;52.268;5.192;2023-02-01T01:52:17;101751.25;;;5.93;78.37
74627;BME280;63132;52.268;5.192;2023-02-01T01:54:47;101747.56;;;6.01;78.05
74627;BME280;63132;52.268;5.192;2023-02-01T01:57:18;101737.97;;;5.95;78.27
74627;BME280;63132;52.268;5.192;2023-02-01T01:59:48;101736.13;;;5.99;78.41
74627;BME280;63132;52.268;5.192;2023-02-01T02:02:16;101727.06;;;5.99;79.02
74627;BME280;63132;52.268;5.192;2023-02-01T02:04:42;101721.94;;;5.97;78.73
74627;BME280;63132;52.268;5.192;2023-02-01T02:07:24;101727.16;;;6.02;78.51
74627;BME280;63132;52.268;5.192;2023-02-01T02:09:51;101729.59;;;6.04;79.12
74627;BME280;63132;52.268;5.192;2023-02-01T02:12:17;101731.22;;;6.21;78.64
74627;BME280;63132;52.268;5.192;2023-02-01T02:14:42;101735.81;;;6.17;78.51
74627;BME280;63132;52.268;5.192;2023-02-01T02:34:34;101715.41;;;6.18;78.25
74627;BME280;63132;52.268;5.192;2023-02-01T02:37:29;101702.97;;;6.08;78.64
74627;BME280;63132;52.268;5.192;2023-02-01T02:40:14;101698.81;;;6.14;78.44
74627;BME280;63132;52.268;5.192;2023-02-01T02:43:05;101708.22;;;6.13;78.46
74627;BME280;63132;52.268;5.192;2023-02-01T02:45:55;101698.03;;;6.14;78.71
74627;BME280;63132;52.268;5.192;2023-02-01T02:49:20;101676.09;;;6.17;78.37
74627;BME280;63132;52.268;5.192;2023-02-01T02:52:13;101677.97;;;6.13;79.32
74627;BME280;63132;52.268;5.192;2023-02-01T02:54:56;101655.69;;;6.02;79.75
74627;BME280;63132;52.268;5.192;2023-02-01T02:57:34;101662.06;;;5.91;80.31
74627;BME280;63132;52.268;5.192;2023-02-01T03:00:22;101666.97;;;5.85;80.44
74627;BME280;63132;52.268;5.192;2023-02-01T03:03:07;101659.25;;;5.75;80.48
74627;BME280;63132;52.268;5.192;2023-02-01T03:05:51;101677.72;;;5.62;81.19
74627;BME280;63132;52.268;5.192;2023-02-01T03:08:24;101685.03;;;5.58;81.54
74627;BME280;63132;52.268;5.192;2023-02-01T03:11:02;101676.00;;;5.57;81.38
74627;BME280;63132;52.268;5.192;2023-02-01T03:21:55;101662.91;;;5.39;82.22
74627;BME280;63132;52.268;5.192;2023-02-01T03:24:31;101668.25;;;5.47;82.04
74627;BME280;63132;52.268;5.192;2023-02-01T03:27:05;101676.84;;;5.46;82.12
74627;BME280;63132;52.268;5.192;2023-02-01T03:32:14;101673.78;;;5.35;82.43
74627;BME280;63132;52.268;5.192;2023-02-01T03:34:40;101676.78;;;5.30;83.28
74627;BME280;63132;52.268;5.192;2023-02-01T03:37:11;101671.75;;;5.32;82.70
74627;BME280;63132;52.268;5.192;2023-02-01T03:39:48;101659.31;;;5.22;83.02
74627;BME280;63132;52.268;5.192;2023-02-01T03:42:30;101665.53;;;5.35;82.91
74627;BME280;63132;52.268;5.192;2023-02-01T03:45:07;101680.28;;;5.43;82.60
74627;BME280;63132;52.268;5.192;2023-02-01T03:47:39;101679.22;;;5.60;82.05
74627;BME280;63132;52.268;5.192;2023-02-01T03:50:17;101684.59;;;5.56;82.04
74627;BME280;63132;52.268;5.192;2023-02-01T03:52:48;101671.63;;;5.69;81.72
74627;BME280;63132;52.268;5.192;2023-02-01T03:55:18;101682.91;;;5.79;81.28
74627;BME280;63132;52.268;5.192;2023-02-01T03:57:53;101675.81;;;5.78;81.37
74627;BME280;63132;52.268;5.192;2023-02-01T04:00:24;101681.44;;;5.82;81.06
74627;BME280;63132;52.268;5.192;2023-02-01T04:02:50;101673.06;;;5.91;80.70
74627;BME280;63132;52.268;5.192;2023-02-01T04:05:16;101677.47;;;5.95;80.18
74627;BME280;63132;52.268;5.192;2023-02-01T04:07:42;101682.88;;;5.92;80.85
74627;BME280;63132;52.268;5.192;2023-02-01T04:10:08;101683.78;;;5.96;80.54
74627;BME280;63132;52.268;5.192;2023-02-01T04:12:34;101683.22;;;5.90;80.60
74627;BME280;63132;52.268;5.192;2023-02-01T04:14:59;101685.28;;;5.81;81.07
74627;BME280;63132;52.268;5.192;2023-02-01T04:17:25;101680.22;;;5.67;81.53
74627;BME280;63132;52.268;5.192;2023-02-01T04:19:50;101693.09;;;5.79;81.27
74627;BME280;63132;52.268;5.192;2023-02-01T04:22:16;101681.03;;;5.68;81.22
74627;BME280;63132;52.268;5.192;2023-02-01T04:24:41;101695.56;;;5.68;81.48
74627;BME280;63132;52.268;5.192;2023-02-01T04:27:07;101687.13;;;5.61;82.26
74627;BME280;63132;52.268;5.192;2023-02-01T04:29:33;101672.09;;;5.59;82.05
74627;BME280;63132;52.268;5.192;2023-02-01T04:31:58;101675.97;;;5.70;81.61
74627;BME280;63132;52.268;5.192;2023-02-01T04:34:23;101674.97;;;5.62;82.08
74627;BME280;63132;52.268;5.192;2023-02-01T04:36:50;101675.00;;;5.50;82.38
74627;BME280;63132;52.268;5.192;2023-02-01T04:39:16;101669.88;;;5.48;82.45
74627;BME280;63132;52.268;5.192;2023-02-01T04:41:41;101676.59;;;5.51;82.38
74627;BME280;63132;52.268;5.192;2023-02-01T04:44:13;101683.09;;;5.59;82.30
74627;BME280;63132;52.268;5.192;2023-02-01T04:46:39;101679.09;;;5.56;82.10
74627;BME280;63132;52.268;5.192;2023-02-01T04:49:05;101675.31;;;5.61;82.02
74627;BME280;63132;52.268;5.192;2023-02-01T04:51:30;101667.53;;;5.63;82.23
74627;BME280;63132;52.268;5.192;2023-02-01T04:53:56;101674.63;;;5.64;81.97
74627;BME280;63132;52.268;5.192;2023-02-01T04:56:21;101674.81;;;5.71;81.67
74627;BME280;63132;52.268;5.192;2023-02-01T04:58:47;101673.78;;;5.75;81.56
74627;BME280;63132;52.268;5.192;2023-02-01T05:01:12;101665.50;;;5.60;82.04
74627;BME280;63132;52.268;5.192;2023-02-01T05:03:38;101650.78;;;5.68;81.80
74627;BME280;63132;52.268;5.192;2023-02-01T05:06:04;101675.31;;;5.61;82.21
74627;BME280;63132;52.268;5.192;2023-02-01T05:08:30;101660.63;;;5.69;81.79
74627;BME280;63132;52.268;5.192;2023-02-01T05:10:56;101657.72;;;5.77;81.78
74627;BME280;63132;52.268;5.192;2023-02-01T05:13:21;101657.97;;;5.72;81.85
74627;BME280;63132;52.268;5.192;2023-02-01T05:16:06;101657.13;;;5.84;81.45
74627;BME280;63132;52.268;5.192;2023-02-01T05:18:31;101667.94;;;5.77;81.85
74627;BME280;63132;52.268;5.192;2023-02-01T05:20:57;101664.56;;;5.83;81.90
74627;BME280;63132;52.268;5.192;2023-02-01T05:23:22;101677.56;;;5.71;82.04
74627;BME280;63132;52.268;5.192;2023-02-01T05:25:47;101679.97;;;5.72;82.49
74627;BME280;63132;52.268;5.192;2023-02-01T05:28:13;101689.00;;;5.73;82.67
74627;BME280;63132;52.268;5.192;2023-02-01T05:30:38;101683.25;;;5.78;82.13
74627;BME280;63132;52.268;5.192;2023-02-01T05:33:04;101688.19;;;5.72;82.30
74627;BME280;63132;52.268;5.192;2023-02-01T05:35:30;101691.41;;;5.74;82.09
74627;BME280;63132;52.268;5.192;2023-02-01T05:37:55;101687.38;;;5.84;82.01
74627;BME280;63132;52.268;5.192;2023-02-01T05:40:21;101681.44;;;5.82;81.71
74627;BME280;63132;52.268;5.192;2023-02-01T05:42:46;101674.03;;;5.70;81.95
74627;BME280;63132;52.268;5.192;2023-02-01T05:45:12;101674.56;;;5.76;82.54
74627;BME280;63132;52.268;5.192;2023-02-01T05:47:37;101676.72;;;5.82;81.68
74627;BME280;63132;52.268;5.192;2023-02-01T05:50:04;101665.97;;;5.77;81.93
74627;BME280;63132;52.268;5.192;2023-02-01T05:52:29;101675.31;;;5.89;81.83
74627;BME280;63132;52.268;5.192;2023-02-01T05:54:55;101675.22;;;5.85;82.06
74627;BME280;63132;52.268;5.192;2023-02-01T05:57:20;101661.44;;;5.97;81.69
74627;BME280;63132;52.268;5.192;2023-02-01T05:59:46;101679.63;;;6.02;81.15
74627;BME280;63132;52.268;5.192;2023-02-01T06:02:13;101692.84;;;5.96;81.62
74627;BME280;63132;52.268;5.192;2023-02-01T06:04:38;101686.81;;;6.06;81.10
74627;BME280;63132;52.268;5.192;2023-02-01T06:07:05;101676.44;;;6.00;81.08
74627;BME280;63132;52.268;5.192;2023-02-01T06:09:33;101676.13;;;5.89;81.90
74627;BME280;63132;52.268;5.192;2023-02-01T06:11:59;101685.03;;;5.98;81.59
74627;BME280;63132;52.268;5.192;2023-02-01T06:14:26;101680.13;;;5.92;81.54
74627;BME280;63132;52.268;5.192;2023-02-01T06:16:53;101683.03;;;5.83;82.09
74627;BME280;63132;52.268;5.192;2023-02-01T06:19:18;101690.50;;;5.70;82.40
74627;BME280;63132;52.268;5.192;2023-02-01T06:21:43;101683.22;;;5.62;82.91
74627;BME280;63132;52.268;5.192;2023-02-01T06:24:09;101683.72;;;5.52;83.36
74627;BME280;63132;52.268;5.192;2023-02-01T06:26:34;101678.81;;;5.45;83.48
74627;BME280;63132;52.268;5.192;2023-02-01T06:29:01;101682.81;;;5.36;84.12
74627;BME280;63132;52.268;5.192;2023-02-01T06:31:26;101678.84;;;5.21;84.57
74627;BME280;63132;52.268;5.192;2023-02-01T06:33:52;101670.59;;;5.33;84.04
74627;BME280;63132;52.268;5.192;2023-02-01T06:36:18;101665.91;;;5.34;84.18
74627;BME280;63132;52.268;5.192;2023-02-01T06:38:46;101678.63;;;5.26;84.09
74627;BME280;63132;52.268;5.192;2023-02-01T06:41:12;101675.28;;;5.33;84.00
74627;BME280;63132;52.268;5.192;2023-02-01T06:43:37;101681.38;;;5.26;84.30
74627;BME280;63132;52.268;5.192;2023-02-01T06:46:05;101693.72;;;5.32;83.65
74627;BME280;63132;52.268;5.192;2023-02-01T06:48:31;101684.78;;;5.35;83.67
74627;BME280;63132;52.268;5.192;2023-02-01T06:50:57;101691.84;;;5.36;83.81
74627;BME280;63132;52.268;5.192;2023-02-01T06:53:23;101687.28;;;5.40;83.61
74627;BME280;63132;52.268;5.192;2023-02-01T06:55:59;101705.47;;;5.45;83.63
74627;BME280;63132;52.268;5.192;2023-02-01T06:58:29;101687.94;;;5.49;83.47
74627;BME280;63132;52.268;5.192;2023-02-01T07:00:54;101692.41;;;5.54;83.68
74627;BME280;63132;52.268;5.192;2023-02-01T07:03:20;101696.59;;;5.64;83.61
74627;BME280;63132;52.268;5.192;2023-02-01T07:05:46;101693.41;;;5.62;83.33
74627;BME280;63132;52.268;5.192;2023-02-01T07:08:11;101697.94;;;5.70;83.48
74627;BME280;63132;52.268;5.192;2023-02-01T07:10:37;101691.63;;;5.81;83.09
74627;BME280;63132;52.268;5.192;2023-02-01T07:13:03;101699.94;;;5.85;83.19
74627;BME280;63132;52.268;5.192;2023-02-01T07:15:28;101689.56;;;5.78;83.59
74627;BME280;63132;52.268;5.192;2023-02-01T07:17:54;101692.09;;;5.71;83.93
74627;BME280;63132;52.268;5.192;2023-02-01T07:20:20;101692.31;;;5.78;83.54
74627;BME280;63132;52.268;5.192;2023-02-01T07:22:46;101687.03;;;5.73;83.85
74627;BME280;63132;52.268;5.192;2023-02-01T07:25:12;101682.72;;;5.72;84.02
74627;BME280;63132;52.268;5.192;2023-02-01T07:27:37;101692.22;;;5.75;83.70
74627;BME280;63132;52.268;5.192;2023-02-01T07:30:04;101689.50;;;5.63;84.50
74627;BME280;63132;52.268;5.192;2023-02-01T07:32:30;101675.63;;;5.71;84.15
74627;BME280;63132;52.268;5.192;2023-02-01T07:34:56;101682.47;;;5.77;83.69
74627;BME280;63132;52.268;5.192;2023-02-01T07:37:21;101690.72;;;5.77;83.53
74627;BME280;63132;52.268;5.192;2023-02-01T07:39:49;101694.66;;;5.64;83.75
74627;BME280;63132;52.268;5.192;2023-02-01T07:42:14;101691.34;;;5.59;84.29
74627;BME280;63132;52.268;5.192;2023-02-01T07:44:39;101695.94;;;5.54;84.01
74627;BME280;63132;52.268;5.192;2023-02-01T07:47:05;101702.47;;;5.50;84.50
74627;BME280;63132;52.268;5.192;2023-02-01T07:49:30;101704.53;;;5.53;84.30
74627;BME280;63132;52.268;5.192;2023-02-01T07:51:56;101688.78;;;5.38;84.71
74627;BME280;63132;52.268;5.192;2023-02-01T07:54:21;101705.78;;;5.55;84.10
74627;BME280;63132;52.268;5.192;2023-02-01T07:56:46;101702.59;;;5.53;84.58
74627;BME280;63132;52.268;5.192;2023-02-01T07:59:12;101705.13;;;5.46;84.43
74627;BME280;63132;52.268;5.192;2023-02-01T08:01:37;101709.69;;;5.42;84.64
74627;BME280;63132;52.268;5.192;2023-02-01T08:04:03;101718.41;;;5.44;84.99
74627;BME280;63132;52.268;5.192;2023-02-01T08:06:33;101714.25;;;5.50;84.72
74627;BME280;63132;52.268;5.192;2023-02-01T08:08:59;101705.78;;;5.55;84.51
74627;BME280;63132;52.268;5.192;2023-02-01T08:11:25;101704.97;;;5.67;84.35
74627;BME280;63132;52.268;5.192;2023-02-01T08:13:51;101706.19;;;5.70;84.57
74627;BME280;63132;52.268;5.192;2023-02-01T08:16:18;101700.31;;;5.83;83.59
74627;BME280;63132;52.268;5.192;2023-02-01T08:18:44;101693.53;;;5.81;83.78
74627;BME280;63132;52.268;5.192;2023-02-01T08:21:21;101692.84;;;5.96;83.05
74627;BME280;63132;52.268;5.192;2023-02-01T08:23:48;101692.94;;;6.00;82.89
74627;BME280;63132;52.268;5.192;2023-02-01T08:26:17;101685.84;;;5.99;83.35
74627;BME280;63132;52.268;5.192;2023-02-01T08:28:45;101682.66;;;5.97;83.02
74627;BME280;63132;52.268;5.192;2023-02-01T08:31:13;101675.19;;;5.97;83.07
74627;BME280;63132;52.268;5.192;2023-02-01T08:33:43;101677.03;;;5.93;82.99
74627;BME280;63132;52.268;5.192;2023-02-01T08:36:09;101674.03;;;5.98;82.95
74627;BME280;63132;52.268;5.192;2023-02-01T08:38:36;101679.56;;;6.14;82.73
74627;BME280;63132;52.268;5.192;2023-02-01T08:41:10;101674.63;;;6.20;82.72
74627;BME280;63132;52.268;5.192;2023-02-01T08:43:35;101683.75;;;6.24;82.29
74627;BME280;63132;52.268;5.192;2023-02-01T08:46:02;101681.78;;;6.40;82.00
74627;BME280;63132;52.268;5.192;2023-02-01T08:48:27;101688.44;;;6.39;81.68
74627;BME280;63132;52.268;5.192;2023-02-01T08:50:52;101686.34;;;6.48;81.53
74627;BME280;63132;52.268;5.192;2023-02-01T08:53:18;101694.50;;;6.60;80.64
74627;BME280;63132;52.268;5.192;2023-02-01T08:55:45;101694.94;;;6.62;80.51
74627;BME280;63132;52.268;5.192;2023-02-01T08:58:12;101679.69;;;6.65;80.67
74627;BME280;63132;52.268;5.192;2023-02-01T09:00:39;101677.28;;;6.63;80.48
74627;BME280;63132;52.268;5.192;2023-02-01T09:03:04;101678.13;;;6.83;79.75
74627;BME280;63132;52.268;5.192;2023-02-01T09:05:29;101679.47;;;6.89;79.79
74627;BME280;63132;52.268;5.192;2023-02-01T09:07:55;101685.78;;;6.90;79.32
74627;BME280;63132;52.268;5.192;2023-02-01T09:10:20;101667.56;;;7.01;79.40
74627;BME280;63132;52.268;5.192;2023-02-01T09:12:46;101652.09;;;6.97;79.35
74627;BME280;63132;52.268;5.192;2023-02-01T09:15:11;101656.81;;;6.96;79.35
74627;BME280;63132;52.268;5.192;2023-02-01T09:17:37;101668.72;;;6.84;78.86
74627;BME280;63132;52.268;5.192;2023-02-01T09:20:03;101671.66;;;6.91;78.89
74627;BME280;63132;52.268;5.192;2023-02-01T09:22:29;101673.63;;;6.75;79.23
74627;BME280;63132;52.268;5.192;2023-02-01T09:24:54;101683.28;;;6.85;79.08
74627;BME280;63132;52.268;5.192;2023-02-01T09:27:20;101703.47;;;6.73;79.53
74627;BME280;63132;52.268;5.192;2023-02-01T09:29:46;101690.25;;;6.79;79.63
74627;BME280;63132;52.268;5.192;2023-02-01T09:32:17;101693.25;;;6.74;79.58
74627;BME280;63132;52.268;5.192;2023-02-01T09:34:42;101682.78;;;6.79;79.74
74627;BME280;63132;52.268;5.192;2023-02-01T09:37:08;101678.25;;;6.87;79.05
74627;BME280;63132;52.268;5.192;2023-02-01T09:39:33;101682.69;;;6.76;79.12
74627;BME280;63132;52.268;5.192;2023-02-01T09:42:35;101673.63;;;6.75;79.42
74627;BME280;63132;52.268;5.192;2023-02-01T09:45:14;101671.41;;;6.81;79.10
74627;BME280;63132;52.268;5.192;2023-02-01T09:47:52;101674.25;;;6.69;79.64
74627;BME280;63132;52.268;5.192;2023-02-01T09:50:49;101676.41;;;6.59;79.61
74627;BME280;63132;52.268;5.192;2023-02-01T09:53:21;101683.41;;;6.57;79.91
74627;BME280;63132;52.268;5.192;2023-02-01T09:55:51;101679.69;;;6.65;79.99
74627;BME280;63132;52.268;5.192;2023-02-01T09:58:21;101666.72;;;6.65;80.51
74627;BME280;63132;52.268;5.192;2023-02-01T10:00:59;101660.59;;;6.56;81.89
74627;BME280;63132;52.268;5.192;2023-02-01T10:03:28;101668.94;;;6.44;83.32
74627;BME280;63132;52.268;5.192;2023-02-01T10:19:48;101674.78;;;5.83;88.89
74627;BME280;63132;52.268;5.192;2023-02-01T10:22:44;101684.03;;;5.91;90.25
74627;BME280;63132;52.268;5.192;2023-02-01T10:25:31;101686.53;;;5.96;89.76
74627;BME280;63132;52.268;5.192;2023-02-01T10:27:59;101672.34;;;6.09;89.70
74627;BME280;63132;52.268;5.192;2023-02-01T10:30:31;101660.13;;;6.07;88.74
74627;BME280;63132;52.268;5.192;2023-02-01T10:33:33;101667.06;;;6.17;88.31
74627;BME280;63132;52.268;5.192;2023-02-01T10:36:16;101662.88;;;6.23;87.55
74627;BME280;63132;52.268;5.192;2023-02-01T10:38:45;101669.13;;;6.20;87.14
74627;BME280;63132;52.268;5.192;2023-02-01T10:41:21;101662.88;;;6.23;85.36
74627;BME280;63132;52.268;5.192;2023-02-01T10:43:54;101661.56;;;6.32;84.72
74627;BME280;63132;52.268;5.192;2023-02-01T10:46:22;101652.97;;;6.50;84.46
74627;BME280;63132;52.268;5.192;2023-02-01T10:48:49;101666.53;;;6.74;83.23
74627;BME280;63132;52.268;5.192;2023-02-01T10:51:49;101661.09;;;6.78;82.85
74627;BME280;63132;52.268;5.192;2023-02-01T10:54:20;101663.25;;;6.69;82.75
74627;BME280;63132;52.268;5.192;2023-02-01T10:56:47;101650.47;;;6.60;82.65
74627;BME280;63132;52.268;5.192;2023-02-01T10:59:23;101668.25;;;6.63;83.27
74627;BME280;63132;52.268;5.192;2023-02-01T11:01:50;101674.06;;;6.61;83.02
74627;BME280;63132;52.268;5.192;2023-02-01T11:04:24;101654.47;;;6.63;84.06
74627;BME280;63132;52.268;5.192;2023-02-01T11:06:53;101661.84;;;6.59;84.99
74627;BME280;63132;52.268;5.192;2023-02-01T11:09:30;101652.06;;;6.61;84.90
74627;BME280;63132;52.268;5.192;2023-02-01T11:11:58;101648.06;;;6.59;84.55
74627;BME280;63132;52.268;5.192;2023-02-01T11:16:55;101648.63;;;6.64;84.54
74627;BME280;63132;52.268;5.192;2023-02-01T11:19:21;101658.19;;;6.71;83.38
74627;BME280;63132;52.268;5.192;2023-02-01T11:21:54;101661.00;;;6.90;83.06
74627;BME280;63132;52.268;5.192;2023-02-01T11:24:25;101656.38;;;6.94;82.29
74627;BME280;63132;52.268;5.192;2023-02-01T11:26:55;101647.22;;;6.90;82.56
74627;BME280;63132;52.268;5.192;2023-02-01T11:29:21;101660.94;;;6.86;81.97
74627;BME280;63132;52.268;5.192;2023-02-01T11:31:56;101655.84;;;6.88;81.99
74627;BME280;63132;52.268;5.192;2023-02-01T11:34:25;101653.91;;;6.89;81.53
74627;BME280;63132;52.268;5.192;2023-02-01T11:36:56;101650.78;;;6.90;81.48
74627;BME280;63132;52.268;5.192;2023-02-01T11:39:30;101636.38;;;6.97;81.16
74627;BME280;63132;52.268;5.192;2023-02-01T11:42:00;101639.41;;;6.92;81.15
74627;BME280;63132;52.268;5.192;2023-02-01T11:47:08;101627.38;;;7.00;81.27
74627;BME280;63132;52.268;5.192;2023-02-01T11:49:37;101621.53;;;7.02;81.16
74627;BME280;63132;52.268;5.192;2023-02-01T11:52:15;101627.84;;;7.02;81.17
74627;BME280;63132;52.268;5.192;2023-02-01T11:58:15;101630.19;;;7.19;80.25
74627;BME280;63132;52.268;5.192;2023-02-01T12:04:24;101641.38;;;7.46;79.26
74627;BME280;63132;52.268;5.192;2023-02-01T12:06:53;101633.81;;;7.43;78.88
74627;BME280;63132;52.268;5.192;2023-02-01T12:12:07;101622.50;;;7.29;79.03
74627;BME280;63132;52.268;5.192;2023-02-01T12:23:02;101619.31;;;7.27;79.82
74627;BME280;63132;52.268;5.192;2023-02-01T12:31:08;101619.81;;;7.32;80.44
74627;BME280;63132;52.268;5.192;2023-02-01T12:38:53;101607.22;;;7.31;80.38
74627;BME280;63132;52.268;5.192;2023-02-01T12:41:47;101623.09;;;7.38;80.26
74627;BME280;63132;52.268;5.192;2023-02-01T12:47:01;101622.78;;;7.43;80.35
74627;BME280;63132;52.268;5.192;2023-02-01T12:52:03;101607.06;;;7.43;80.42
74627;BME280;63132;52.268;5.192;2023-02-01T12:55:00;101602.66;;;7.39;80.38
74627;BME280;63132;52.268;5.192;2023-02-01T12:57:37;101621.63;;;7.44;80.91
74627;BME280;63132;52.268;5.192;2023-02-01T13:03:00;101610.53;;;7.40;80.49
74627;BME280;63132;52.268;5.192;2023-02-01T13:08:17;101631.56;;;7.29;80.00
74627;BME280;63132;52.268;5.192;2023-02-01T13:10:51;101628.63;;;7.38;79.75
74627;BME280;63132;52.268;5.192;2023-02-01T13:13:32;101623.25;;;7.45;79.22
74627;BME280;63132;52.268;5.192;2023-02-01T13:18:41;101613.06;;;7.49;79.81
74627;BME280;63132;52.268;5.192;2023-02-01T13:21:17;101619.25;;;7.42;79.91
74627;BME280;63132;52.268;5.192;2023-02-01T13:23:46;101615.81;;;7.30;80.22
74627;BME280;63132;52.268;5.192;2023-02-01T13:26:13;101625.50;;;7.39;80.57
74627;BME280;63132;52.268;5.192;2023-02-01T13:28:56;101625.41;;;7.36;80.41
74627;BME280;63132;52.268;5.192;2023-02-01T13:42:55;101606.78;;;7.91;78.33
74627;BME280;63132;52.268;5.192;2023-02-01T13:45:26;101598.84;;;7.89;78.94
74627;BME280;63132;52.268;5.192;2023-02-01T13:47:55;101604.63;;;7.81;78.65
74627;BME280;63132;52.268;5.192;2023-02-01T13:55:46;101611.63;;;7.97;78.40
74627;BME280;63132;52.268;5.192;2023-02-01T13:58:20;101609.09;;;7.89;78.93
74627;BME280;63132;52.268;5.192;2023-02-01T14:00:48;101613.91;;;7.92;79.09
74627;BME280;63132;52.268;5.192;2023-02-01T14:03:20;101615.66;;;7.81;80.01
74627;BME280;63132;52.268;5.192;2023-02-01T14:10:56;101619.38;;;7.69;80.38
74627;BME280;63132;52.268;5.192;2023-02-01T14:23:44;101625.75;;;7.73;80.12
74627;BME280;63132;52.268;5.192;2023-02-01T14:26:14;101628.44;;;7.69;80.08
74627;BME280;63132;52.268;5.192;2023-02-01T14:28:50;101631.47;;;7.84;80.02
74627;BME280;63132;52.268;5.192;2023-02-01T14:32:43;101620.59;;;7.71;80.30
74627;BME280;63132;52.268;5.192;2023-02-01T14:37:11;101622.56;;;7.71;80.43
74627;BME280;63132;52.268;5.192;2023-02-01T14:39:52;101629.16;;;7.66;81.04
74627;BME280;63132;52.268;5.192;2023-02-01T14:42:42;101644.53;;;7.09;86.59
74627;BME280;63132;52.268;5.192;2023-02-01T15:01:28;101656.63;;;5.94;98.42
74627;BME280;63132;52.268;5.192;2023-02-01T15:04:12;101649.53;;;5.93;98.36
74627;BME280;63132;52.268;5.192;2023-02-01T15:06:46;101644.78;;;6.22;98.77
74627;BME280;63132;52.268;5.192;2023-02-01T15:09:19;101647.66;;;6.57;95.55
74627;BME280;63132;52.268;5.192;2023-02-01T15:14:40;101662.78;;;6.82;91.46
74627;BME280;63132;52.268;5.192;2023-02-01T15:17:22;101665.53;;;6.82;90.96
74627;BME280;63132;52.268;5.192;2023-02-01T15:19:55;101654.53;;;6.82;90.90
74627;BME280;63132;52.268;5.192;2023-02-01T15:22:20;101664.72;;;6.98;90.14
74627;BME280;63132;52.268;5.192;2023-02-01T15:24:52;101666.22;;;6.95;88.96
74627;BME280;63132;52.268;5.192;2023-02-01T15:27:19;101673.34;;;6.96;88.36
74627;BME280;63132;52.268;5.192;2023-02-01T15:29:44;101675.63;;;7.10;87.75
74627;BME280;63132;52.268;5.192;2023-02-01T15:32:29;101672.50;;;7.11;88.36
74627;BME280;63132;52.268;5.192;2023-02-01T15:34:56;101676.06;;;7.12;88.36
74627;BME280;63132;52.268;5.192;2023-02-01T15:37:22;101686.28;;;7.11;86.66
74627;BME280;63132;52.268;5.192;2023-02-01T15:42:59;101685.53;;;7.30;86.55
74627;BME280;63132;52.268;5.192;2023-02-01T15:45:31;101682.44;;;7.16;86.37